Time;durP1;ratioP1;P1;durP2;ratioP2;P2;SDS_P1;SDS_P2;PMS_P1;PMS_P2;Temp;Humidity;BMP_temperature;BMP_pressure;BME280_temperature;BME280_humidity;BME280_pressure;Samples;Min_cycle;Max_cycle;Signal;HPM_P1;HPM_P2
2023/12/02 00:02:12;;;;;;;3.88;1.90;;;21.50;99.90;;;;;;4980610;28;20514;-53
2023/12/02 00:04:38;;;;;;;3.20;2.00;;;21.40;99.90;;;;;;4976808;28;20026;-54
2023/12/02 00:07:04;;;;;;;2.78;1.92;;;21.40;99.90;;;;;;4989476;28;20049;-54
2023/12/02 00:09:30;;;;;;;2.88;1.80;;;21.40;99.90;;;;;;4975285;28;20031;-53
2023/12/02 00:11:55;;;;;;;3.38;2.03;;;21.40;99.90;;;;;;4991799;28;20026;-53
2023/12/02 00:14:21;;;;;;;2.92;1.77;;;21.40;99.90;;;;;;4988087;28;20052;-53
2023/12/02 00:16:47;;;;;;;3.33;1.75;;;21.40;99.90;;;;;;4992150;28;20035;-54
2023/12/02 00:19:13;;;;;;;3.60;2.08;;;21.40;99.90;;;;;;4990665;28;20019;-53
2023/12/02 00:21:38;;;;;;;2.80;1.90;;;21.40;99.90;;;;;;4973527;28;20105;-53
2023/12/02 00:24:04;;;;;;;3.28;1.83;;;21.40;99.90;;;;;;4972972;28;20030;-53
2023/12/02 00:26:30;;;;;;;3.65;2.15;;;21.50;99.90;;;;;;4976034;28;20030;-53
2023/12/02 00:28:56;;;;;;;3.30;1.85;;;21.40;99.90;;;;;;4972618;28;20051;-53
2023/12/02 00:31:22;;;;;;;4.38;1.88;;;21.40;99.90;;;;;;4986947;28;20027;-53
2023/12/02 00:33:48;;;;;;;2.50;1.52;;;21.40;99.90;;;;;;4992243;28;20479;-53
2023/12/02 00:36:13;;;;;;;2.60;1.60;;;21.40;99.90;;;;;;4977586;28;20328;-53
2023/12/02 00:38:39;;;;;;;2.85;2.00;;;21.40;99.90;;;;;;4973299;28;20027;-53
2023/12/02 00:41:08;;;;;;;4.18;1.83;;;21.40;99.90;;;;;;4985643;28;20483;-54
2023/12/02 00:43:33;;;;;;;3.63;1.98;;;21.40;99.90;;;;;;4985694;28;20101;-53
2023/12/02 00:45:59;;;;;;;3.88;1.48;;;21.40;99.90;;;;;;4984510;28;20024;-54
2023/12/02 00:48:25;;;;;;;3.75;2.00;;;21.40;99.90;;;;;;4992127;28;20121;-54
2023/12/02 00:50:51;;;;;;;4.80;2.05;;;21.40;99.90;;;;;;4985536;28;20057;-53
2023/12/02 00:53:16;;;;;;;2.53;1.75;;;21.40;99.90;;;;;;4995353;28;20034;-55
2023/12/02 00:55:42;;;;;;;2.38;1.58;;;21.40;99.90;;;;;;4992345;28;20375;-54
2023/12/02 00:58:08;;;;;;;2.83;1.80;;;21.30;99.90;;;;;;4995486;28;20388;-53
2023/12/02 01:00:34;;;;;;;3.50;1.65;;;21.30;99.90;;;;;;4987145;28;20030;-54
2023/12/02 01:03:00;;;;;;;2.78;1.73;;;21.30;99.90;;;;;;4991451;28;20041;-54
2023/12/02 01:05:26;;;;;;;2.17;1.60;;;21.30;99.90;;;;;;4983024;28;20030;-54
2023/12/02 01:07:51;;;;;;;2.90;1.60;;;21.30;99.90;;;;;;4993720;28;20038;-54
2023/12/02 01:10:17;;;;;;;1.75;1.45;;;21.30;99.90;;;;;;4989986;28;20050;-54
2023/12/02 01:12:43;;;;;;;3.90;1.77;;;21.30;99.90;;;;;;4976466;28;20027;-53
2023/12/02 01:15:09;;;;;;;3.33;1.70;;;21.30;99.90;;;;;;4989663;28;20417;-54
2023/12/02 01:17:35;;;;;;;1.50;1.20;;;21.30;99.90;;;;;;4976285;28;20038;-53
2023/12/02 01:20:01;;;;;;;2.15;1.40;;;21.30;99.90;;;;;;4974528;28;20038;-53
2023/12/02 01:22:26;;;;;;;1.63;1.30;;;21.30;99.90;;;;;;4976130;28;20173;-53
2023/12/02 01:24:52;;;;;;;2.33;1.38;;;21.30;99.90;;;;;;4976220;28;20033;-54
2023/12/02 01:27:18;;;;;;;4.05;1.65;;;21.20;99.90;;;;;;4994081;28;20038;-54
2023/12/02 01:29:44;;;;;;;3.20;1.67;;;21.30;99.90;;;;;;4995354;28;20044;-53
2023/12/02 01:32:10;;;;;;;2.00;1.48;;;21.30;99.90;;;;;;4985975;28;20458;-53
2023/12/02 01:34:36;;;;;;;2.17;1.45;;;21.30;99.90;;;;;;4993992;28;20081;-53
2023/12/02 01:37:01;;;;;;;4.13;1.58;;;21.30;99.90;;;;;;4977737;28;20034;-53
2023/12/02 01:39:27;;;;;;;2.10;1.35;;;21.30;99.90;;;;;;4994973;28;20035;-53
2023/12/02 01:41:53;;;;;;;2.83;1.70;;;21.20;99.90;;;;;;4978391;28;20027;-54
2023/12/02 01:44:19;;;;;;;2.53;1.55;;;21.20;99.90;;;;;;4986700;28;20030;-53
2023/12/02 01:46:45;;;;;;;2.28;1.30;;;21.20;99.90;;;;;;4979731;28;20101;-53
2023/12/02 01:49:11;;;;;;;3.20;1.63;;;21.20;99.90;;;;;;4979536;28;20048;-54
2023/12/02 01:51:37;;;;;;;2.50;1.30;;;21.20;99.90;;;;;;4987282;28;20470;-54
2023/12/02 01:54:04;;;;;;;2.03;1.42;;;21.20;99.90;;;;;;5009486;28;20053;-53
2023/12/02 01:56:30;;;;;;;1.90;1.17;;;21.20;99.90;;;;;;4992229;28;20429;-54
2023/12/02 01:58:56;;;;;;;2.95;1.50;;;21.20;99.90;;;;;;4992889;28;20471;-53
2023/12/02 02:01:22;;;;;;;1.60;0.98;;;21.20;99.90;;;;;;4990376;28;20066;-53
2023/12/02 02:03:51;;;;;;;1.95;1.00;;;21.20;99.90;;;;;;4992848;28;20050;-53
2023/12/02 02:06:17;;;;;;;3.80;1.50;;;21.20;99.90;;;;;;4983200;28;20069;-54
2023/12/02 02:08:43;;;;;;;2.38;1.27;;;21.20;99.90;;;;;;4975159;28;20062;-54
2023/12/02 02:11:09;;;;;;;2.00;1.42;;;21.20;99.90;;;;;;4983823;28;20034;-53
2023/12/02 02:13:35;;;;;;;2.25;1.10;;;21.20;99.90;;;;;;4979699;28;20034;-54
2023/12/02 02:16:01;;;;;;;2.80;1.35;;;21.20;99.90;;;;;;4982611;28;20085;-53
2023/12/02 02:18:29;;;;;;;2.40;1.40;;;21.20;99.90;;;;;;4988905;28;20526;-52
2023/12/02 02:20:55;;;;;;;1.90;1.38;;;21.20;99.90;;;;;;4981085;28;20034;-53
2023/12/02 02:23:23;;;;;;;2.20;1.20;;;21.20;99.90;;;;;;4994489;28;20443;-52
2023/12/02 02:25:49;;;;;;;;;;;21.20;99.90;;;;;;4982989;28;20050;-53
2023/12/02 02:28:23;;;;;;;3.10;0.95;;;21.10;99.90;;;;;;4993760;28;19922;-54
2023/12/02 02:30:49;;;;;;;1.70;1.10;;;21.10;99.90;;;;;;4986888;28;20424;-53
2023/12/02 02:33:15;;;;;;;2.60;1.13;;;21.20;99.90;;;;;;4975005;28;20364;-53
2023/12/02 02:35:42;;;;;;;2.10;1.17;;;21.20;99.90;;;;;;4978533;28;20026;-53
2023/12/02 02:38:08;;;;;;;1.75;1.02;;;21.10;99.90;;;;;;4991781;28;20065;-54
2023/12/02 02:40:34;;;;;;;1.48;0.90;;;21.10;99.90;;;;;;4991398;28;20047;-54
2023/12/02 02:43:00;;;;;;;1.33;0.75;;;21.10;99.90;;;;;;4982587;28;20353;-53
2023/12/02 02:45:26;;;;;;;1.67;1.02;;;21.10;99.90;;;;;;5007349;28;20641;-53
2023/12/02 02:47:53;;;;;;;1.67;1.20;;;21.10;99.90;;;;;;4990516;28;20046;-54
2023/12/02 02:50:18;;;;;;;1.63;1.20;;;21.10;99.90;;;;;;4975402;28;20491;-54
2023/12/02 02:52:46;;;;;;;1.52;1.10;;;21.10;99.90;;;;;;4986959;28;20030;-54
2023/12/02 02:55:11;;;;;;;2.00;1.20;;;21.10;99.90;;;;;;4988727;28;20030;-54
2023/12/02 02:57:37;;;;;;;2.65;1.45;;;21.10;99.90;;;;;;4990532;28;20018;-54
2023/12/02 03:00:09;;;;;;;1.35;0.93;;;21.10;99.90;;;;;;4991099;28;20033;-54
2023/12/02 03:02:37;;;;;;;2.72;1.23;;;21.00;99.90;;;;;;5006364;28;20054;-54
2023/12/02 03:05:04;;;;;;;2.85;1.15;;;21.00;99.90;;;;;;4991112;28;20033;-54
2023/12/02 03:07:30;;;;;;;3.28;1.20;;;21.00;99.90;;;;;;4991667;28;20023;-54
2023/12/02 03:09:56;;;;;;;1.58;1.00;;;21.00;99.90;;;;;;4990134;28;20170;-54
2023/12/02 03:12:23;;;;;;;1.50;1.00;;;21.00;99.90;;;;;;4993688;28;20026;-52
2023/12/02 03:14:52;;;;;;;4.03;1.33;;;21.00;99.90;;;;;;4992910;28;20107;-52
2023/12/02 03:17:18;;;;;;;2.03;1.13;;;21.00;99.90;;;;;;4993573;28;20032;-54
2023/12/02 03:19:44;;;;;;;1.63;1.02;;;21.00;99.90;;;;;;4993707;28;20109;-54
2023/12/02 03:22:10;;;;;;;4.00;1.30;;;20.90;99.90;;;;;;4993613;28;20360;-54
2023/12/02 03:24:36;;;;;;;4.35;1.50;;;20.90;99.90;;;;;;5009049;28;20101;-54
2023/12/02 03:27:02;;;;;;;1.35;0.82;;;20.90;99.90;;;;;;4993607;28;20145;-54
2023/12/02 03:29:28;;;;;;;6.70;1.42;;;20.90;99.90;;;;;;4993554;28;20073;-54
2023/12/02 03:31:54;;;;;;;4.15;1.20;;;20.90;99.90;;;;;;4993586;28;20030;-54
2023/12/02 03:34:20;;;;;;;2.45;1.08;;;20.90;99.90;;;;;;4993290;28;20117;-53
2023/12/02 03:36:46;;;;;;;1.23;0.60;;;20.90;99.90;;;;;;4993432;28;20101;-53
2023/12/02 03:39:15;;;;;;;2.50;1.25;;;20.90;99.90;;;;;;4993308;28;20023;-53
2023/12/02 03:41:42;;;;;;;1.80;1.10;;;20.90;99.90;;;;;;4993261;28;20030;-53
2023/12/02 03:44:08;;;;;;;1.60;1.10;;;20.80;99.90;;;;;;4993495;28;20475;-52
2023/12/02 03:46:36;;;;;;;2.27;0.90;;;20.80;99.90;;;;;;4993353;28;20463;-53
2023/12/02 03:49:02;;;;;;;1.30;0.80;;;20.80;99.90;;;;;;4993041;28;20291;-53
2023/12/02 03:51:28;;;;;;;2.65;1.08;;;20.80;99.90;;;;;;4993139;28;20033;-52
2023/12/02 03:53:54;;;;;;;2.80;1.20;;;20.80;99.90;;;;;;4993188;28;20026;-52
2023/12/02 03:56:20;;;;;;;3.88;1.58;;;20.80;99.90;;;;;;4993114;28;20039;-52
2023/12/02 03:58:46;;;;;;;1.88;1.17;;;20.80;99.90;;;;;;4993086;28;20033;-52
2023/12/02 04:01:15;;;;;;;2.15;1.02;;;20.70;99.90;;;;;;4998533;23;20403;-49
2023/12/02 04:03:42;;;;;;;2.13;1.00;;;20.80;99.90;;;;;;4972428;28;20034;-48
2023/12/02 04:06:08;;;;;;;1.45;0.95;;;20.70;99.90;;;;;;4973672;28;20019;-48
2023/12/02 04:08:34;;;;;;;4.37;1.10;;;20.70;99.90;;;;;;4973461;28;20035;-48
2023/12/02 04:11:00;;;;;;;2.42;1.02;;;20.70;99.90;;;;;;4973480;28;20074;-49
2023/12/02 04:13:26;;;;;;;2.60;1.15;;;20.70;99.90;;;;;;4973523;28;20058;-48
2023/12/02 04:15:52;;;;;;;1.27;0.98;;;20.70;99.90;;;;;;4973411;28;20026;-48
2023/12/02 04:18:17;;;;;;;2.10;0.90;;;20.70;99.90;;;;;;4973332;28;20035;-48
2023/12/02 04:20:43;;;;;;;2.70;1.08;;;20.70;99.90;;;;;;4973228;28;20038;-48
2023/12/02 04:23:09;;;;;;;1.95;1.30;;;20.60;99.90;;;;;;4973485;28;20074;-48
2023/12/02 04:25:36;;;;;;;1.88;1.08;;;20.60;99.90;;;;;;4988597;28;20371;-48
2023/12/02 04:28:02;;;;;;;3.42;1.30;;;20.60;99.90;;;;;;4977290;28;20035;-48
2023/12/02 04:30:28;;;;;;;1.80;0.88;;;20.60;99.90;;;;;;4976004;28;20043;-48
2023/12/02 04:32:54;;;;;;;1.88;0.63;;;20.60;99.90;;;;;;4977285;28;20393;-48
2023/12/02 04:35:19;;;;;;;3.70;0.82;;;20.60;99.90;;;;;;4977222;28;20093;-48
2023/12/02 04:37:45;;;;;;;3.10;0.85;;;20.60;99.90;;;;;;4977055;28;20058;-47
2023/12/02 04:40:11;;;;;;;2.72;0.90;;;20.60;99.90;;;;;;4977371;28;20039;-48
2023/12/02 04:42:39;;;;;;;2.40;0.85;;;20.50;99.90;;;;;;4977380;28;20098;-48
2023/12/02 04:45:06;;;;;;;1.90;0.88;;;20.50;99.90;;;;;;4975722;28;20026;-47
2023/12/02 04:47:32;;;;;;;2.03;1.00;;;20.50;99.90;;;;;;4991960;28;20045;-47
2023/12/02 04:49:57;;;;;;;1.48;1.05;;;20.50;99.90;;;;;;4977000;28;20027;-48
2023/12/02 04:52:23;;;;;;;1.17;0.70;;;20.50;99.90;;;;;;4975243;28;20018;-48
2023/12/02 04:54:49;;;;;;;1.50;0.80;;;20.50;99.90;;;;;;4976407;28;20097;-48
2023/12/02 04:57:15;;;;;;;2.33;1.05;;;20.50;99.90;;;;;;4975768;28;20019;-48
2023/12/02 04:59:41;;;;;;;3.47;0.75;;;20.40;99.90;;;;;;4975559;28;20035;-48
2023/12/02 05:02:09;;;;;;;1.98;0.70;;;20.40;99.90;;;;;;4975915;28;20495;-48
2023/12/02 05:04:34;;;;;;;2.42;0.90;;;20.40;99.90;;;;;;4976717;28;20034;-48
2023/12/02 05:07:00;;;;;;;3.13;1.05;;;20.40;99.90;;;;;;4976652;28;20031;-48
2023/12/02 05:09:26;;;;;;;1.35;0.70;;;20.40;99.90;;;;;;4975824;28;20074;-47
2023/12/02 05:11:52;;;;;;;1.10;0.82;;;20.40;99.90;;;;;;4976474;28;20098;-48
2023/12/02 05:14:17;;;;;;;1.95;0.75;;;20.40;99.90;;;;;;4976509;28;20059;-48
2023/12/02 05:16:44;;;;;;;2.17;0.70;;;20.40;99.90;;;;;;4976673;28;20015;-48
2023/12/02 05:19:10;;;;;;;5.05;0.90;;;20.40;99.90;;;;;;4976722;28;20030;-47
2023/12/02 05:21:37;;;;;;;1.23;0.70;;;20.40;99.90;;;;;;4976503;28;20119;-48
2023/12/02 05:24:03;;;;;;;1.33;0.60;;;20.40;99.90;;;;;;4976495;28;20097;-49
2023/12/02 05:26:29;;;;;;;1.83;0.70;;;20.30;99.90;;;;;;4976152;28;20046;-48
2023/12/02 05:28:54;;;;;;;1.38;0.60;;;20.30;99.90;;;;;;4976004;28;20100;-49
2023/12/02 05:31:21;;;;;;;0.70;0.55;;;20.40;99.90;;;;;;4976205;28;20431;-49
2023/12/02 05:33:47;;;;;;;2.13;0.90;;;20.30;99.90;;;;;;4976340;28;20126;-49
2023/12/02 05:36:13;;;;;;;2.97;1.10;;;20.30;99.90;;;;;;4976386;28;20127;-49
2023/12/02 05:38:39;;;;;;;1.80;0.60;;;20.30;99.90;;;;;;4975078;28;20099;-49
2023/12/02 05:41:05;;;;;;;1.77;0.60;;;20.30;99.90;;;;;;4975983;28;20027;-50
2023/12/02 05:43:31;;;;;;;0.98;0.50;;;20.30;99.90;;;;;;4975965;28;20132;-50
2023/12/02 05:45:57;;;;;;;1.98;0.70;;;20.30;99.90;;;;;;4975959;28;20050;-50
2023/12/02 05:48:22;;;;;;;3.17;0.70;;;20.30;99.90;;;;;;4974525;28;20046;-50
2023/12/02 05:50:48;;;;;;;1.60;0.55;;;20.30;99.90;;;;;;4975929;28;20023;-50
2023/12/02 05:53:14;;;;;;;1.75;0.63;;;20.30;99.90;;;;;;4976099;28;20542;-50
2023/12/02 05:55:40;;;;;;;3.53;0.70;;;20.30;99.90;;;;;;4975851;28;20046;-50
2023/12/02 05:58:05;;;;;;;2.55;0.70;;;20.30;99.90;;;;;;4975755;28;20027;-50
2023/12/02 06:00:35;;;;;;;1.83;0.80;;;20.20;99.90;;;;;;4974025;28;20462;-50
2023/12/02 06:03:01;;;;;;;4.15;0.75;;;20.20;99.90;;;;;;4975103;28;20077;-50
2023/12/02 06:05:28;;;;;;;1.58;0.90;;;20.20;99.90;;;;;;4974882;28;20042;-50
2023/12/02 06:07:54;;;;;;;2.70;0.50;;;20.30;99.90;;;;;;4973553;28;20046;-50
2023/12/02 06:10:19;;;;;;;0.82;0.60;;;20.20;99.90;;;;;;4988341;28;20027;-50
2023/12/02 06:12:45;;;;;;;3.00;0.73;;;20.20;99.90;;;;;;4973568;28;20023;-50
2023/12/02 06:15:11;;;;;;;0.98;0.60;;;20.20;99.90;;;;;;4973454;28;20558;-49
2023/12/02 06:17:38;;;;;;;1.10;0.60;;;20.20;99.90;;;;;;4973581;28;20030;-49
2023/12/02 06:20:06;;;;;;;0.73;0.52;;;20.20;99.90;;;;;;4973386;28;20022;-50
2023/12/02 06:22:32;;;;;;;;;;;20.20;99.90;;;;;;4975391;28;20045;-49
2023/12/02 06:24:58;;;;;;;3.20;0.70;;;20.20;99.90;;;;;;4975282;28;19906;-49
2023/12/02 06:27:24;;;;;;;2.25;0.77;;;20.20;99.90;;;;;;4975171;28;20166;-49
2023/12/02 06:29:49;;;;;;;1.45;0.60;;;20.20;99.90;;;;;;4975278;28;20050;-50
2023/12/02 06:32:15;;;;;;;0.95;0.60;;;20.20;99.90;;;;;;4975178;28;20023;-50
2023/12/02 06:34:41;;;;;;;2.45;0.50;;;20.20;99.90;;;;;;4975025;28;20027;-51
2023/12/02 06:37:07;;;;;;;2.20;0.68;;;20.10;99.90;;;;;;4975002;28;20109;-50
2023/12/02 06:39:33;;;;;;;1.13;0.47;;;20.20;99.90;;;;;;4974977;28;20038;-50
2023/12/02 06:41:59;;;;;;;1.27;0.75;;;20.10;99.90;;;;;;4974853;28;20027;-50
2023/12/02 06:44:25;;;;;;;0.68;0.47;;;20.10;99.90;;;;;;4974953;28;20066;-50
2023/12/02 06:46:51;;;;;;;0.80;0.50;;;20.10;99.90;;;;;;4974797;28;20038;-50
2023/12/02 06:49:17;;;;;;;1.95;0.82;;;20.10;99.90;;;;;;4974839;28;20130;-50
2023/12/02 06:51:44;;;;;;;1.38;0.60;;;20.10;99.90;;;;;;4974844;28;20019;-50
2023/12/02 06:54:10;;;;;;;1.73;0.60;;;20.10;99.90;;;;;;4974458;28;20031;-50
2023/12/02 06:56:36;;;;;;;1.65;0.60;;;20.10;99.90;;;;;;4974703;28;20547;-50
2023/12/02 06:59:03;;;;;;;1.25;0.63;;;20.10;99.90;;;;;;4974603;28;20034;-50
2023/12/02 07:01:32;;;;;;;4.28;0.63;;;20.10;99.90;;;;;;4974364;28;20051;-50
2023/12/02 07:04:00;;;;;;;1.17;0.40;;;20.10;99.90;;;;;;4974633;28;20452;-50
2023/12/02 07:06:26;;;;;;;;;;;20.10;99.90;;;;;;4975002;28;20019;-49
2023/12/02 07:08:54;;;;;;;2.13;0.93;;;20.10;99.90;;;;;;4974353;28;19918;-49
2023/12/02 07:11:21;;;;;;;1.80;0.70;;;20.10;99.90;;;;;;4974312;28;20019;-50
2023/12/02 07:13:47;;;;;;;1.80;0.82;;;20.10;99.90;;;;;;4974560;28;20556;-50
2023/12/02 07:16:13;;;;;;;1.58;0.60;;;20.10;99.90;;;;;;4974198;28;20123;-49
2023/12/02 07:18:40;;;;;;;2.47;0.70;;;20.00;99.90;;;;;;4974192;28;20538;-49
2023/12/02 07:21:07;;;;;;;2.65;0.93;;;20.00;99.90;;;;;;4974188;28;20022;-49
2023/12/02 07:23:33;;;;;;;;;;;20.00;99.90;;;;;;4974679;28;20097;-49
2023/12/02 07:25:59;;;;;;;2.60;0.70;;;20.00;99.90;;;;;;4974196;28;20342;-49
2023/12/02 07:28:25;;;;;;;1.73;0.52;;;20.00;99.90;;;;;;4974022;28;20046;-49
2023/12/02 07:30:51;;;;;;;3.13;1.20;;;20.00;99.90;;;;;;4974166;28;20027;-49
2023/12/02 07:33:21;;;;;;;1.08;0.55;;;20.00;99.90;;;;;;4974171;28;20027;-49
2023/12/02 07:35:47;;;;;;;1.92;0.55;;;20.00;99.90;;;;;;4974069;28;20023;-49
2023/12/02 07:38:13;;;;;;;1.33;0.60;;;20.00;99.90;;;;;;4973930;28;20059;-49
2023/12/02 07:40:38;;;;;;;1.25;0.60;;;20.00;99.90;;;;;;4973928;28;20058;-50
2023/12/02 07:43:05;;;;;;;2.67;0.75;;;20.00;99.90;;;;;;4973882;28;20037;-49
2023/12/02 07:45:31;;;;;;;5.63;0.60;;;20.00;99.90;;;;;;4988652;28;20023;-50
2023/12/02 07:47:57;;;;;;;0.77;0.50;;;20.00;99.90;;;;;;4973705;28;20037;-49
2023/12/02 07:50:23;;;;;;;1.40;0.63;;;19.90;99.90;;;;;;4972490;28;20472;-49
2023/12/02 07:52:49;;;;;;;1.02;0.70;;;20.00;99.90;;;;;;4973909;28;20037;-49
2023/12/02 07:55:15;;;;;;;1.83;0.68;;;20.00;99.90;;;;;;4973711;28;20027;-49
2023/12/02 07:57:41;;;;;;;1.55;0.73;;;20.00;99.90;;;;;;4973614;28;20042;-48
2023/12/02 08:00:07;;;;;;;2.55;0.70;;;20.00;99.90;;;;;;4972191;28;20023;-48
2023/12/02 08:02:34;;;;;;;2.60;0.57;;;20.00;99.90;;;;;;4973283;28;20046;-50
2023/12/02 08:05:00;;;;;;;1.98;0.60;;;20.00;99.90;;;;;;4973442;28;20419;-49
2023/12/02 08:07:26;;;;;;;1.70;0.80;;;20.10;99.90;;;;;;4973397;28;20483;-49
2023/12/02 08:09:51;;;;;;;1.52;0.88;;;20.10;99.90;;;;;;4973675;28;20065;-49
2023/12/02 08:12:17;;;;;;;1.65;0.80;;;20.10;99.90;;;;;;4973571;28;20019;-49
2023/12/02 08:14:43;;;;;;;1.90;1.08;;;20.20;99.90;;;;;;4972021;28;20082;-49
2023/12/02 08:17:09;;;;;;;2.53;0.90;;;20.20;99.90;;;;;;4973490;28;20081;-51
2023/12/02 08:19:35;;;;;;;3.72;1.05;;;20.20;99.90;;;;;;4973203;28;20488;-49
2023/12/02 08:22:01;;;;;;;3.13;0.88;;;20.30;99.90;;;;;;4972119;28;20035;-50
2023/12/02 08:24:27;;;;;;;2.63;1.42;;;20.30;99.90;;;;;;4973364;28;20015;-49
2023/12/02 08:26:53;;;;;;;1.50;1.20;;;20.40;99.90;;;;;;4973428;28;20034;-50
2023/12/02 08:29:19;;;;;;;1.65;1.00;;;20.40;99.90;;;;;;4973621;28;20038;-50
2023/12/02 08:31:44;;;;;;;3.03;1.20;;;20.40;99.90;;;;;;4973391;28;20023;-50
2023/12/02 08:34:10;;;;;;;2.30;1.13;;;20.50;99.90;;;;;;4973214;28;20446;-49
2023/12/02 08:36:36;;;;;;;1.20;0.93;;;20.50;99.90;;;;;;4973364;28;20026;-49
2023/12/02 08:39:04;;;;;;;1.88;1.20;;;20.60;99.90;;;;;;4973274;28;20034;-50
2023/12/02 08:41:31;;;;;;;3.22;1.77;;;20.60;99.90;;;;;;4973186;28;20031;-50
2023/12/02 08:43:56;;;;;;;4.47;1.50;;;20.60;99.90;;;;;;4971789;28;20034;-50
2023/12/02 08:46:22;;;;;;;3.38;1.83;;;20.70;99.90;;;;;;4973314;28;20019;-50
2023/12/02 08:48:48;;;;;;;2.53;1.33;;;20.70;99.90;;;;;;4972952;28;20398;-49
2023/12/02 08:51:14;;;;;;;2.75;1.45;;;20.70;99.90;;;;;;4972902;28;20040;-48
2023/12/02 08:53:40;;;;;;;5.35;1.55;;;20.80;99.90;;;;;;4973121;28;20483;-49
2023/12/02 08:56:06;;;;;;;4.22;1.83;;;20.80;99.90;;;;;;4972777;28;20034;-48
2023/12/02 08:58:32;;;;;;;2.40;1.83;;;20.90;99.90;;;;;;4972879;28;20030;-49
2023/12/02 09:00:57;;;;;;;3.90;1.70;;;20.90;99.90;;;;;;4972887;28;20050;-48
2023/12/02 09:03:23;;;;;;;2.58;1.70;;;20.90;99.90;;;;;;4972933;28;20099;-48
2023/12/02 09:05:55;;;;;;;1.80;1.27;;;21.00;99.90;;;;;;4973106;28;20023;-48
2023/12/02 09:08:21;;;;;;;5.10;1.58;;;21.00;99.90;;;;;;4972980;28;20118;-49
2023/12/02 09:10:48;;;;;;;3.53;1.50;;;21.10;99.90;;;;;;4972959;28;20360;-48
2023/12/02 09:13:32;;;;;;;3.88;1.60;;;21.10;99.90;;;;;;4974154;28;20030;-49
2023/12/02 09:16:00;;;;;;;3.20;1.88;;;21.20;99.90;;;;;;4974963;28;20368;-49
2023/12/02 09:18:28;;;;;;;;;;;21.20;99.90;;;;;;4976940;28;20490;-49
2023/12/02 09:20:55;;;;;;;3.70;1.65;;;21.30;99.90;;;;;;4976518;28;19952;-49
2023/12/02 09:23:21;;;;;;;3.78;1.70;;;21.30;99.90;;;;;;4976331;28;20026;-49
2023/12/02 09:25:48;;;;;;;2.95;1.73;;;21.30;99.90;;;;;;4976242;28;20023;-50
2023/12/02 09:28:15;;;;;;;3.35;1.67;;;21.40;99.90;;;;;;4976006;28;20041;-50
2023/12/02 09:30:52;;;;;;;3.25;1.70;;;21.40;99.90;;;;;;4976219;28;20030;-49
2023/12/02 09:33:19;;;;;;;4.97;2.22;;;21.50;99.90;;;;;;4974866;28;20027;-49
2023/12/02 09:35:45;;;;;;;3.15;1.95;;;21.50;99.90;;;;;;4976064;28;20126;-49
2023/12/02 09:38:15;;;;;;;6.68;2.25;;;21.60;99.90;;;;;;4976021;28;20054;-50
2023/12/02 09:40:47;;;;;;;10.75;2.95;;;21.60;99.90;;;;;;4976024;28;20018;-49
2023/12/02 09:43:19;;;;;;;3.88;2.22;;;21.70;99.90;;;;;;4975945;28;20026;-49
2023/12/02 09:45:55;;;;;;;4.00;2.00;;;21.70;99.90;;;;;;4975814;28;20030;-49
2023/12/02 09:48:24;;;;;;;6.40;2.20;;;21.70;99.90;;;;;;4975653;28;20039;-49
2023/12/02 09:51:08;;;;;;;5.10;2.10;;;21.80;99.90;;;;;;4975960;28;20033;-50
2023/12/02 09:53:41;;;;;;;4.60;2.28;;;21.90;99.90;;;;;;4958454;28;20081;-51
2023/12/02 09:56:24;;;;;;;6.55;2.42;;;21.90;99.90;;;;;;4975680;28;20464;-50
2023/12/02 09:59:02;;;;;;;5.18;2.25;;;21.90;99.90;;;;;;4975806;28;20443;-51
2023/12/02 10:01:34;;;;;;;5.10;2.40;;;22.00;99.90;;;;;;4990687;28;20487;-50
2023/12/02 10:04:03;;;;;;;4.85;1.90;;;22.10;99.90;;;;;;4974310;28;20035;-51
2023/12/02 10:06:50;;;;;;;6.97;2.42;;;22.10;99.90;;;;;;4974247;28;20046;-51
2023/12/02 10:09:33;;;;;;;4.30;2.42;;;22.10;99.90;;;;;;4975306;28;20062;-49
2023/12/02 10:12:30;;;;;;;4.28;2.03;;;22.20;99.90;;;;;;4975505;28;20440;-50
2023/12/02 10:15:01;;;;;;;6.47;2.38;;;22.30;99.90;;;;;;4975658;28;20038;-49
2023/12/02 10:17:31;;;;;;;5.20;1.80;;;22.30;99.90;;;;;;4975428;28;20442;-49
2023/12/02 10:20:01;;;;;;;5.88;2.13;;;22.40;99.90;;;;;;4975550;28;20038;-49
2023/12/02 10:22:30;;;;;;;5.53;2.22;;;22.50;99.90;;;;;;4975174;28;20058;-49
2023/12/02 10:25:04;;;;;;;10.98;2.53;;;22.50;99.90;;;;;;4975091;28;20031;-49
2023/12/02 10:27:35;;;;;;;4.57;2.15;;;22.60;99.90;;;;;;4975108;28;20015;-50
2023/12/02 10:30:12;;;;;;;4.20;2.28;;;22.60;99.90;;;;;;4975194;28;20073;-50
2023/12/02 10:32:59;;;;;;;4.32;2.20;;;22.70;99.90;;;;;;4975117;28;20065;-50
2023/12/02 10:35:31;;;;;;;5.47;2.03;;;22.70;99.90;;;;;;4975052;28;20058;-51
2023/12/02 10:38:30;;;;;;;3.88;2.10;;;22.80;99.90;;;;;;4990205;28;20023;-51
2023/12/02 10:41:20;;;;;;;3.78;2.30;;;22.90;99.90;;;;;;4966787;28;20487;-50
2023/12/02 10:43:50;;;;;;;4.97;2.10;;;22.90;99.90;;;;;;4974837;28;20030;-50
2023/12/02 10:46:17;;;;;;;5.60;2.90;;;23.00;99.90;;;;;;4974813;28;20498;-50
2023/12/02 10:48:44;;;;;;;6.15;2.33;;;23.10;99.90;;;;;;4974709;28;20031;-51
2023/12/02 10:51:13;;;;;;;8.32;2.35;;;23.10;99.90;;;;;;4974730;28;20027;-51
2023/12/02 10:53:42;;;;;;;5.45;2.20;;;23.10;99.90;;;;;;4973487;28;20026;-50
2023/12/02 10:56:16;;;;;;;4.97;2.30;;;23.20;99.90;;;;;;4973586;28;20082;-51
2023/12/02 10:58:44;;;;;;;5.32;2.65;;;23.20;99.90;;;;;;4974524;28;20383;-50
2023/12/02 11:01:10;;;;;;;;;;;23.20;99.90;;;;;;4974759;28;20322;-50
2023/12/02 11:03:49;;;;;;;8.68;2.10;;;23.30;99.90;;;;;;4974360;28;19906;-49
2023/12/02 11:06:23;;;;;;;5.53;2.33;;;23.40;99.90;;;;;;4974292;28;20026;-49
2023/12/02 11:09:10;;;;;;;4.05;2.45;;;23.40;99.90;;;;;;4974152;28;20082;-50
2023/12/02 11:12:14;;;;;;;3.75;2.50;;;23.40;99.90;;;;;;4974439;28;20064;-51
2023/12/02 11:14:41;;;;;;;4.05;2.03;;;23.40;99.90;;;;;;4952828;28;20026;-51
2023/12/02 11:17:15;;;;;;;4.82;2.13;;;23.50;99.90;;;;;;4936800;29;20503;-51
2023/12/02 11:20:25;;;;;;;5.40;2.60;;;23.50;99.90;;;;;;4964250;28;20117;-51
2023/12/02 11:23:03;;;;;;;3.65;2.00;;;23.50;99.90;;;;;;4974015;28;20058;-51
2023/12/02 11:25:47;;;;;;;;;;;23.60;99.90;;;;;;4974814;28;20467;-51
2023/12/02 11:28:44;;;;;;;5.45;2.75;;;23.70;99.90;;;;;;4974209;28;19914;-51
2023/12/02 11:31:38;;;;;;;6.60;2.58;;;23.70;99.90;;;;;;4966621;28;20042;-50
2023/12/02 11:34:07;;;;;;;3.40;2.05;;;23.70;99.90;;;;;;4974008;28;20058;-50
2023/12/02 11:36:56;;;;;;;5.85;2.50;;;23.70;99.90;;;;;;4973536;28;20027;-50
2023/12/02 11:39:54;;;;;;;4.15;2.40;;;23.80;99.90;;;;;;4973957;28;20023;-51
2023/12/02 11:42:24;;;;;;;4.95;2.58;;;23.80;99.90;;;;;;4973976;28;20050;-51
2023/12/02 11:45:31;;;;;;;5.47;3.20;;;23.80;99.90;;;;;;4973638;28;20050;-52
2023/12/02 11:48:20;;;;;;;4.22;2.60;;;23.90;99.90;;;;;;4970526;28;20042;-51
2023/12/02 11:50:49;;;;;;;8.02;2.90;;;23.90;99.90;;;;;;4972325;28;20058;-51
2023/12/02 11:53:17;;;;;;;7.18;2.92;;;23.90;99.90;;;;;;4973539;28;20022;-51
2023/12/02 11:55:55;;;;;;;5.20;2.72;;;24.00;99.90;;;;;;4972457;28;20038;-50
2023/12/02 11:58:34;;;;;;;10.18;3.22;;;24.00;99.90;;;;;;4972843;28;20519;-50
2023/12/02 12:01:24;;;;;;;5.63;2.92;;;24.00;99.90;;;;;;4973263;28;20492;-50
2023/12/02 12:04:08;;;;;;;7.18;3.08;;;24.10;99.90;;;;;;4973299;28;20023;-55
2023/12/02 12:06:52;;;;;;;4.25;2.75;;;24.10;99.90;;;;;;4973491;28;20114;-51
2023/12/02 12:09:29;;;;;;;8.40;2.65;;;24.10;99.90;;;;;;4972833;28;20045;-50
2023/12/02 12:11:57;;;;;;;9.60;3.47;;;24.10;99.90;;;;;;4968259;28;20028;-50
2023/12/02 12:14:26;;;;;;;5.40;2.80;;;24.10;99.90;;;;;;4953077;29;20480;-50
2023/12/02 12:16:52;;;;;;;6.50;2.72;;;24.20;99.90;;;;;;4954062;28;20397;-49
2023/12/02 12:19:18;;;;;;;3.78;2.63;;;24.20;99.90;;;;;;4972524;28;20041;-49
2023/12/02 12:21:44;;;;;;;6.30;2.70;;;24.20;99.90;;;;;;4972974;28;20031;-49
2023/12/02 12:24:10;;;;;;;4.65;2.70;;;24.20;99.90;;;;;;4973230;28;20059;-49
2023/12/02 12:26:35;;;;;;;7.18;2.72;;;24.20;99.90;;;;;;4973702;28;20423;-50
2023/12/02 12:29:02;;;;;;;9.48;2.75;;;24.20;99.90;;;;;;4972771;28;20039;-50
2023/12/02 12:31:29;;;;;;;16.63;3.83;;;24.30;99.90;;;;;;4972768;28;20147;-50
2023/12/02 12:33:55;;;;;;;4.40;2.45;;;24.30;99.90;;;;;;4970459;28;20038;-49
2023/12/02 12:36:31;;;;;;;6.32;2.05;;;24.30;99.90;;;;;;4973095;28;20097;-49
2023/12/02 12:38:59;;;;;;;5.18;2.15;;;24.30;99.90;;;;;;4973169;28;20042;-49
2023/12/02 12:41:25;;;;;;;4.20;2.75;;;24.30;99.90;;;;;;4973211;28;20035;-49
2023/12/02 12:43:54;;;;;;;6.55;2.90;;;24.30;99.90;;;;;;4973075;28;20030;-50
2023/12/02 12:46:20;;;;;;;16.23;3.85;;;24.40;99.90;;;;;;4973047;28;20019;-50
2023/12/02 12:48:51;;;;;;;5.38;2.05;;;24.40;99.90;;;;;;4976764;28;20031;-50
2023/12/02 12:51:21;;;;;;;4.07;2.13;;;24.50;99.90;;;;;;4975626;28;20023;-50
2023/12/02 12:53:58;;;;;;;3.35;1.90;;;24.50;99.90;;;;;;4976923;28;20337;-49
2023/12/02 12:56:52;;;;;;;3.22;2.08;;;24.50;99.90;;;;;;4976820;28;20050;-50